Terminal Aerodrome Forecast (TAF)

TAF

Data at: 1935 UTC 26 Nov 2022

TAF for:NVSC (Sola/Vanua Lava Arpt, TO, VU) issued at 1700 UTC 26 Nov 2022
Text:TAF NVSC 261700Z 2618/2718 VRB02KT 9999 BKN020
Forecast period:1800 UTC 26 November 2022 to 1800 UTC 27 November 2022
Forecast type:FROM: standard forecast or significant change
Winds:variable direction winds at 2 MPH (2 knots; 1.0 m/s)
Visibility:6 or more sm (10+ km)
Ceiling:2000 feet AGL
Clouds: broken clouds at 2000 feet AGL
Text:INTER 2618/2624 6000 TSRA FEW010 BKN018 FEW022CB OVC090
Forecast period:1800 UTC 26 November 2022 to 0000 UTC 27 November 2022
Forecast type:TEMPORARY: The following changes expected for less than half the time period
Visibility: 4 sm ( 6 km)
Ceiling:1800 feet AGL
Clouds: few clouds at 1000 feet AGL, broken clouds at 1800 feet AGL, few clouds at 2200 feet AGL
Weather:TSRA (rain associated with thunderstorm(s))

TAF

Data at: 1935 UTC 26 Nov 2022

TAF for:NVSG (Longana Arpt, PA, VU) issued at 1700 UTC 26 Nov 2022
Text:TAF NVSG 261700Z 2618/2718 VRB03KT 9999 BKN020
Forecast period:1800 UTC 26 November 2022 to 1800 UTC 27 November 2022
Forecast type:FROM: standard forecast or significant change
Winds:variable direction winds at 3 MPH (3 knots; 1.5 m/s)
Visibility:6 or more sm (10+ km)
Ceiling:2000 feet AGL
Clouds: broken clouds at 2000 feet AGL
Text:INTER 2618/2624 6000 TSRA FEW010 BKN018 FEW022CB OVC090
Forecast period:1800 UTC 26 November 2022 to 0000 UTC 27 November 2022
Forecast type:TEMPORARY: The following changes expected for less than half the time period
Visibility: 4 sm ( 6 km)
Ceiling:1800 feet AGL
Clouds: few clouds at 1000 feet AGL, broken clouds at 1800 feet AGL, few clouds at 2200 feet AGL
Weather:TSRA (rain associated with thunderstorm(s))

TAF

Data at: 1935 UTC 26 Nov 2022

TAF for:NVSS (Santo/Pekoa Intl, SA, VU) issued at 1700 UTC 26 Nov 2022
Text:TAF NVSS 261700Z 2618/2718 VRB04KT 9999 BKN020 I
Forecast period:1800 UTC 26 November 2022 to 1800 UTC 27 November 2022
Forecast type:FROM: standard forecast or significant change
Winds:variable direction winds at 5 MPH (4 knots; 2.1 m/s)
Visibility:6 or more sm (10+ km)
Ceiling:1800 feet AGL
Clouds: few clouds at 1000 feet AGL, broken clouds at 1800 feet AGL, broken clouds at 2000 feet AGL
Weather:TSRA (rain associated with thunderstorm(s))

TAF

Data at: 1935 UTC 26 Nov 2022

TAF for:NVSL (Malekula Isl/Lamap, MA, VU) issued at 1700 UTC 26 Nov 2022
Text:TAF NVSL 261700Z 2618/2718 VRB03KT 9999 BKN018
Forecast period:1800 UTC 26 November 2022 to 1800 UTC 27 November 2022
Forecast type:FROM: standard forecast or significant change
Winds:variable direction winds at 3 MPH (3 knots; 1.5 m/s)
Visibility:6 or more sm (10+ km)
Ceiling:1800 feet AGL
Clouds: broken clouds at 1800 feet AGL
Text:INTER 2618/2624 6000 TSRA FEW010 BKN018 FEW022CB OVC090
Forecast period:1800 UTC 26 November 2022 to 0000 UTC 27 November 2022
Forecast type:TEMPORARY: The following changes expected for less than half the time period
Visibility: 4 sm ( 6 km)
Ceiling:1800 feet AGL
Clouds: few clouds at 1000 feet AGL, broken clouds at 1800 feet AGL, few clouds at 2200 feet AGL
Weather:TSRA (rain associated with thunderstorm(s))

TAF

Data at: 1935 UTC 26 Nov 2022

TAF for:NVSP (Norsup Arpt, MA, VU) issued at 1700 UTC 26 Nov 2022
Text:TAF NVSP 261700Z 2618/2718 VRB03KT 9999 BKN020
Forecast period:1800 UTC 26 November 2022 to 1800 UTC 27 November 2022
Forecast type:FROM: standard forecast or significant change
Winds:variable direction winds at 3 MPH (3 knots; 1.5 m/s)
Visibility:6 or more sm (10+ km)
Ceiling:2000 feet AGL
Clouds: broken clouds at 2000 feet AGL
Text:INTER 2618/2624 6000 TSRA FEW010 BKN018 FEW022CB OVC090
Forecast period:1800 UTC 26 November 2022 to 0000 UTC 27 November 2022
Forecast type:TEMPORARY: The following changes expected for less than half the time period
Visibility: 4 sm ( 6 km)
Ceiling:1800 feet AGL
Clouds: few clouds at 1000 feet AGL, broken clouds at 1800 feet AGL, few clouds at 2200 feet AGL
Weather:TSRA (rain associated with thunderstorm(s))

TAF

Data at: 1935 UTC 26 Nov 2022

TAF for:NVVV (Efate/Bauerfield Int, SE, VU) issued at 1700 UTC 26 Nov 2022
Text:TAF NVVV 261700Z 2618/2718 VRB04KT 9999 BKN018
Forecast period:1800 UTC 26 November 2022 to 1800 UTC 27 November 2022
Forecast type:FROM: standard forecast or significant change
Winds:variable direction winds at 5 MPH (4 knots; 2.1 m/s)
Visibility:6 or more sm (10+ km)
Ceiling:1800 feet AGL
Clouds: broken clouds at 1800 feet AGL
Text:INTER 2618/2624 8000 SHRA FEW010 BKN018 OVC090
Forecast period:1800 UTC 26 November 2022 to 0000 UTC 27 November 2022
Forecast type:TEMPORARY: The following changes expected for less than half the time period
Visibility: 5 sm ( 8 km)
Ceiling:1800 feet AGL
Clouds: few clouds at 1000 feet AGL, broken clouds at 1800 feet AGL, overcast cloud deck at 9000 feet AGL
Weather:SHRA (rain showers)

TAF

Data at: 1935 UTC 26 Nov 2022

TAF for:NVVW (Tanna Arpt, TA, VU) issued at 1700 UTC 26 Nov 2022
Text:TAF NVVW 261700Z 2618/2718 VRB03KT 9999 BKN018
Forecast period:1800 UTC 26 November 2022 to 1800 UTC 27 November 2022
Forecast type:FROM: standard forecast or significant change
Winds:variable direction winds at 3 MPH (3 knots; 1.5 m/s)
Visibility:6 or more sm (10+ km)
Ceiling:1800 feet AGL
Clouds: broken clouds at 1800 feet AGL
Text:INTER 2618/2624 8000 SHRA FEW010 BKN018 OVC090
Forecast period:1800 UTC 26 November 2022 to 0000 UTC 27 November 2022
Forecast type:TEMPORARY: The following changes expected for less than half the time period
Visibility: 5 sm ( 8 km)
Ceiling:1800 feet AGL
Clouds: few clouds at 1000 feet AGL, broken clouds at 1800 feet AGL, overcast cloud deck at 9000 feet AGL
Weather:SHRA (rain showers)

TAF

Data at: 1935 UTC 26 Nov 2022

TAF for:NVVA (Aneityum/Mystery Isl, TA, VU) issued at 1700 UTC 26 Nov 2022
Text:TAF NVVA 261700Z 2618/2718 VRB03KT 9999 BKN018
Forecast period:1800 UTC 26 November 2022 to 1800 UTC 27 November 2022
Forecast type:FROM: standard forecast or significant change
Winds:variable direction winds at 3 MPH (3 knots; 1.5 m/s)
Visibility:6 or more sm (10+ km)
Ceiling:1800 feet AGL
Clouds: broken clouds at 1800 feet AGL
Text:INTER 2618/2624 8000 SHRA FEW010 BKN018 OVC090
Forecast period:1800 UTC 26 November 2022 to 0000 UTC 27 November 2022
Forecast type:TEMPORARY: The following changes expected for less than half the time period
Visibility: 5 sm ( 8 km)
Ceiling:1800 feet AGL
Clouds: few clouds at 1000 feet AGL, broken clouds at 1800 feet AGL, overcast cloud deck at 9000 feet AGL
Weather:SHRA (rain showers)

TAF

Data at: 1935 UTC 26 Nov 2022

TAF NVVV 261700Z 2618/2718 VRB04KT 9999 BKN018
  INTER 2618/2624 8000 SHRA FEW010 BKN018 OVC090
TAF NVSC 261700Z 2618/2718 VRB02KT 9999 BKN020
  INTER 2618/2624 6000 TSRA FEW010 BKN018 FEW022CB OVC090
TAF NVSG 261700Z 2618/2718 VRB03KT 9999 BKN020
  INTER 2618/2624 6000 TSRA FEW010 BKN018 FEW022CB OVC090
TAF NVSS 261700Z 2618/2718 VRB04KT 9999 BKN020 I
  INTER 2618/2624 6000 TSRA FEW010 BKN018 FEW022CB OVC090
TAF NVSL 261700Z 2618/2718 VRB03KT 9999 BKN018
  INTER 2618/2624 6000 TSRA FEW010 BKN018 FEW022CB OVC090
TAF NVSP 261700Z 2618/2718 VRB03KT 9999 BKN020
  INTER 2618/2624 6000 TSRA FEW010 BKN018 FEW022CB OVC090
TAF NVVW 261700Z 2618/2718 VRB03KT 9999 BKN018
  INTER 2618/2624 8000 SHRA FEW010 BKN018 OVC090
TAF NVVA 261700Z 2618/2718 VRB03KT 9999 BKN018
  INTER 2618/2624 8000 SHRA FEW010 BKN018 OVC090